Time,TemperatureF,DewpointF,PressureIn,WindDirection,WindDirectionDegrees,WindSpeedMPH,WindSpeedGustMPH,Humidity,HourlyPrecipIn,Conditions,Clouds,dailyrainin,SoftwareType,DateUTC
2013-03-18 00:06:00,21.9,10.0,30.36,WNW,298,0.0,0.0,60,0.00,,,0.00,weatherlink.com 1.10,2013-03-18 04:06:00,
2013-03-18 00:21:00,21.6,9.0,30.37,ENE,71,0.0,3.0,58,0.00,,,0.00,weatherlink.com 1.10,2013-03-18 04:21:00,
2013-03-18 00:36:00,21.4,9.0,30.37,ENE,67,0.0,4.0,58,0.00,,,0.00,weatherlink.com 1.10,2013-03-18 04:36:00,
2013-03-18 00:52:00,21.9,7.0,30.37,NE,53,2.0,7.0,54,0.00,,,0.00,weatherlink.com 1.10,2013-03-18 04:52:00,
2013-03-18 01:06:00,21.5,9.0,30.36,NNE,18,0.0,1.0,58,0.00,,,0.00,weatherlink.com 1.10,2013-03-18 05:06:00,
2013-03-18 01:22:00,21.5,8.0,30.37,WNW,288,1.0,5.0,55,0.00,,,0.00,weatherlink.com 1.10,2013-03-18 05:22:00,
2013-03-18 01:37:00,21.1,8.0,30.39,NW,316,0.0,2.0,57,0.00,,,0.00,weatherlink.com 1.10,2013-03-18 05:37:00,
2013-03-18 01:52:00,20.4,9.0,30.40,NNW,329,0.0,0.0,61,0.00,,,0.00,weatherlink.com 1.10,2013-03-18 05:52:00,
2013-03-18 02:07:00,19.0,9.0,30.39,NNW,329,0.0,0.0,64,0.00,,,0.00,weatherlink.com 1.10,2013-03-18 06:07:00,
2013-03-18 02:22:00,18.0,9.0,30.40,NNW,328,0.0,0.0,67,0.00,,,0.00,weatherlink.com 1.10,2013-03-18 06:22:00,
2013-03-18 02:37:00,17.2,9.0,30.40,NNW,327,0.0,0.0,69,0.00,,,0.00,weatherlink.com 1.10,2013-03-18 06:37:00,
2013-03-18 02:52:00,16.9,9.0,30.41,WNW,299,0.0,1.0,72,0.00,,,0.00,weatherlink.com 1.10,2013-03-18 06:52:00,
2013-03-18 03:07:00,16.5,10.0,30.40,NW,315,0.0,0.0,74,0.00,,,0.00,weatherlink.com 1.10,2013-03-18 07:07:00,
2013-03-18 03:22:00,16.2,9.0,30.40,WNW,291,0.0,0.0,73,0.00,,,0.00,weatherlink.com 1.10,2013-03-18 07:22:00,
2013-03-18 03:37:00,15.3,9.0,30.39,WNW,292,2.0,3.0,76,0.00,,,0.00,weatherlink.com 1.10,2013-03-18 07:37:00,
2013-03-18 03:52:00,15.1,9.0,30.40,SSE,153,0.0,3.0,77,0.00,,,0.00,weatherlink.com 1.10,2013-03-18 07:52:00,
2013-03-18 04:07:00,14.9,10.0,30.39,NW,309,0.0,1.0,79,0.00,,,0.00,weatherlink.com 1.10,2013-03-18 08:07:00,
2013-03-18 04:22:00,14.7,9.0,30.40,North,351,2.0,3.0,79,0.00,,,0.00,weatherlink.com 1.10,2013-03-18 08:22:00,
2013-03-18 04:37:00,14.0,9.0,30.41,North,349,0.0,0.0,79,0.00,,,0.00,weatherlink.com 1.10,2013-03-18 08:37:00,
2013-03-18 04:52:00,13.5,9.0,30.41,NNW,340,0.0,2.0,82,0.00,,,0.00,weatherlink.com 1.10,2013-03-18 08:52:00,
2013-03-18 05:07:00,13.4,9.0,30.42,SW,221,0.0,0.0,83,0.00,,,0.00,weatherlink.com 1.10,2013-03-18 09:07:00,
2013-03-18 05:22:00,13.2,9.0,30.43,SW,221,0.0,0.0,83,0.00,,,0.00,weatherlink.com 1.10,2013-03-18 09:22:00,
2013-03-18 05:37:00,12.5,9.0,30.43,SW,221,0.0,0.0,84,0.00,,,0.00,weatherlink.com 1.10,2013-03-18 09:37:00,
2013-03-18 05:52:00,11.7,8.0,30.44,NNW,333,0.0,0.0,85,0.00,,,0.00,weatherlink.com 1.10,2013-03-18 09:52:00,
2013-03-18 06:07:00,11.9,9.0,30.45,NNW,340,0.0,0.0,86,0.00,,,0.00,weatherlink.com 1.10,2013-03-18 10:07:00,
2013-03-18 06:23:00,12.3,9.0,30.46,NW,305,0.0,2.0,86,0.00,,,0.00,weatherlink.com 1.10,2013-03-18 10:23:00,
2013-03-18 06:38:00,12.3,9.0,30.46,NW,325,1.0,3.0,86,0.00,,,0.00,weatherlink.com 1.10,2013-03-18 10:38:00,
2013-03-18 06:53:00,12.2,9.0,30.47,NNW,334,0.0,3.0,86,0.00,,,0.00,weatherlink.com 1.10,2013-03-18 10:53:00,
2013-03-18 07:08:00,12.0,9.0,30.46,NNW,334,0.0,0.0,87,0.00,,,0.00,weatherlink.com 1.10,2013-03-18 11:08:00,
2013-03-18 07:23:00,12.5,9.0,30.47,NNW,327,0.0,0.0,87,0.00,,,0.00,weatherlink.com 1.10,2013-03-18 11:23:00,
2013-03-18 07:38:00,13.0,10.0,30.48,NW,308,0.0,0.0,86,0.00,,,0.00,weatherlink.com 1.10,2013-03-18 11:38:00,
2013-03-18 07:53:00,13.9,11.0,30.47,NNW,338,0.0,0.0,86,0.00,,,0.00,weatherlink.com 1.10,2013-03-18 11:53:00,
2013-03-18 08:08:00,15.0,12.0,30.47,NNW,338,0.0,0.0,86,0.00,,,0.00,weatherlink.com 1.10,2013-03-18 12:08:00,
2013-03-18 08:23:00,16.2,12.0,30.47,NNW,339,0.0,0.0,83,0.00,,,0.00,weatherlink.com 1.10,2013-03-18 12:23:00,
2013-03-18 08:38:00,18.2,13.0,30.47,SSE,150,0.0,0.0,80,0.00,,,0.00,weatherlink.com 1.10,2013-03-18 12:38:00,
2013-03-18 08:53:00,19.9,11.0,30.47,South,187,1.0,5.0,68,0.00,,,0.00,weatherlink.com 1.10,2013-03-18 12:53:00,
2013-03-18 09:08:00,21.1,9.0,30.46,NW,318,0.0,4.0,61,0.00,,,0.00,weatherlink.com 1.10,2013-03-18 13:08:00,
2013-03-18 09:23:00,22.1,10.0,30.45,NW,304,0.0,4.0,59,0.00,,,0.00,weatherlink.com 1.10,2013-03-18 13:23:00,
2013-03-18 09:38:00,23.0,8.0,30.45,SW,226,1.0,5.0,53,0.00,,,0.00,weatherlink.com 1.10,2013-03-18 13:38:00,
2013-03-18 09:53:00,24.0,9.0,30.44,East,96,4.0,4.0,52,0.00,,,0.00,weatherlink.com 1.10,2013-03-18 13:53:00,
2013-03-18 10:08:00,25.3,6.0,30.44,NE,53,1.0,6.0,44,0.00,,,0.00,weatherlink.com 1.10,2013-03-18 14:08:00,
2013-03-18 10:23:00,26.2,5.0,30.43,East,101,0.0,4.0,40,0.00,,,0.00,weatherlink.com 1.10,2013-03-18 14:23:00,
2013-03-18 10:38:00,26.6,4.0,30.43,ENE,78,2.0,4.0,38,0.00,,,0.00,weatherlink.com 1.10,2013-03-18 14:38:00,
2013-03-18 10:53:00,27.3,3.0,30.43,ESE,108,0.0,4.0,36,0.00,,,0.00,weatherlink.com 1.10,2013-03-18 14:53:00,
2013-03-18 11:08:00,28.1,2.0,30.43,South,186,3.0,4.0,33,0.00,,,0.00,weatherlink.com 1.10,2013-03-18 15:08:00,
2013-03-18 11:23:00,28.9,5.0,30.42,SE,138,0.0,5.0,36,0.00,,,0.00,weatherlink.com 1.10,2013-03-18 15:23:00,
2013-03-18 11:38:00,29.3,5.0,30.42,SE,124,1.0,4.0,36,0.00,,,0.00,weatherlink.com 1.10,2013-03-18 15:38:00,
2013-03-18 11:53:00,30.0,5.0,30.42,ENE,76,0.0,4.0,35,0.00,,,0.00,weatherlink.com 1.10,2013-03-18 15:53:00,
2013-03-18 12:08:00,31.0,6.0,30.42,ENE,60,3.0,6.0,35,0.00,,,0.00,weatherlink.com 1.10,2013-03-18 16:08:00,
2013-03-18 12:23:00,31.4,5.0,30.41,East,84,5.0,5.0,33,0.00,,,0.00,weatherlink.com 1.10,2013-03-18 16:23:00,
2013-03-18 12:38:00,31.0,5.0,30.41,ESE,123,1.0,5.0,33,0.00,,,0.00,weatherlink.com 1.10,2013-03-18 16:38:00,
2013-03-18 12:53:00,31.0,4.0,30.41,SE,132,0.0,5.0,32,0.00,,,0.00,weatherlink.com 1.10,2013-03-18 16:53:00,
2013-03-18 13:08:00,31.6,5.0,30.40,ESE,112,4.0,5.0,33,0.00,,,0.00,weatherlink.com 1.10,2013-03-18 17:08:00,
2013-03-18 13:24:00,31.5,5.0,30.39,East,89,2.0,6.0,32,0.00,,,0.00,weatherlink.com 1.10,2013-03-18 17:24:00,
2013-03-18 13:39:00,31.7,6.0,30.38,East,98,4.0,8.0,34,0.00,,,0.00,weatherlink.com 1.10,2013-03-18 17:39:00,
2013-03-18 13:54:00,31.4,7.0,30.37,SSE,158,1.0,8.0,35,0.00,,,0.00,weatherlink.com 1.10,2013-03-18 17:54:00,
2013-03-18 14:09:00,31.8,8.0,30.36,ESE,108,0.0,7.0,36,0.00,,,0.00,weatherlink.com 1.10,2013-03-18 18:09:00,
2013-03-18 14:24:00,31.8,7.0,30.36,SE,124,1.0,5.0,35,0.00,,,0.00,weatherlink.com 1.10,2013-03-18 18:24:00,
2013-03-18 14:39:00,31.2,7.0,30.36,ESE,103,3.0,7.0,36,0.00,,,0.00,weatherlink.com 1.10,2013-03-18 18:39:00,
2013-03-18 14:54:00,30.8,7.0,30.35,ESE,103,3.0,4.0,37,0.00,,,0.00,weatherlink.com 1.10,2013-03-18 18:54:00,
2013-03-18 15:09:00,30.9,7.0,30.33,SE,131,2.0,4.0,37,0.00,,,0.00,weatherlink.com 1.10,2013-03-18 19:09:00,
2013-03-18 15:24:00,30.9,7.0,30.32,ESE,113,0.0,5.0,37,0.00,,,0.00,weatherlink.com 1.10,2013-03-18 19:24:00,
2013-03-18 15:39:00,31.3,8.0,30.31,ESE,110,1.0,4.0,37,0.00,,,0.00,weatherlink.com 1.10,2013-03-18 19:39:00,
2013-03-18 15:54:00,31.1,7.0,30.32,SE,136,1.0,4.0,37,0.00,,,0.00,weatherlink.com 1.10,2013-03-18 19:54:00,
2013-03-18 16:09:00,30.9,8.0,30.32,East,83,2.0,4.0,39,0.00,,,0.00,weatherlink.com 1.10,2013-03-18 20:09:00,
2013-03-18 16:24:00,30.9,8.0,30.32,ESE,110,1.0,4.0,38,0.00,,,0.00,weatherlink.com 1.10,2013-03-18 20:24:00,
2013-03-18 16:39:00,30.2,12.0,30.31,SSW,200,6.0,7.0,46,0.00,,,0.00,weatherlink.com 1.10,2013-03-18 20:39:00,
2013-03-18 16:54:00,28.8,16.0,30.30,NNE,32,0.0,3.0,59,0.00,,,0.00,weatherlink.com 1.10,2013-03-18 20:54:00,
2013-03-18 17:24:00,28.4,18.0,30.28,NNW,343,0.0,3.0,64,0.00,,,0.00,weatherlink.com 1.10,2013-03-18 21:24:00,
2013-03-18 17:39:00,28.3,17.0,30.28,SSE,166,0.0,6.0,62,0.00,,,0.00,weatherlink.com 1.10,2013-03-18 21:39:00,
2013-03-18 17:54:00,28.3,18.0,30.28,SE,146,1.0,5.0,66,0.00,,,0.00,weatherlink.com 1.10,2013-03-18 21:54:00,
2013-03-18 18:09:00,28.4,17.0,30.27,SE,134,0.0,4.0,63,0.00,,,0.00,weatherlink.com 1.10,2013-03-18 22:09:00,
2013-03-18 18:24:00,28.3,17.0,30.27,South,188,0.0,6.0,62,0.00,,,0.00,weatherlink.com 1.10,2013-03-18 22:24:00,
2013-03-18 18:39:00,28.1,18.0,30.26,WNW,285,0.0,6.0,65,0.00,,,0.00,weatherlink.com 1.10,2013-03-18 22:39:00,
2013-03-18 18:54:00,27.1,20.0,30.25,SSE,163,0.0,2.0,74,0.00,,,0.00,weatherlink.com 1.10,2013-03-18 22:54:00,
2013-03-18 19:09:00,26.2,21.0,30.25,ESE,122,0.0,3.0,80,0.00,,,0.00,weatherlink.com 1.10,2013-03-18 23:09:00,
2013-03-18 19:24:00,25.7,22.0,30.25,ENE,72,0.0,3.0,85,0.00,,,0.00,weatherlink.com 1.10,2013-03-18 23:24:00,
2013-03-18 19:39:00,25.4,22.0,30.25,ESE,122,0.0,3.0,88,0.00,,,0.00,weatherlink.com 1.10,2013-03-18 23:39:00,
2013-03-18 19:54:00,25.1,22.0,30.24,SSE,155,0.0,5.0,89,0.00,,,0.00,weatherlink.com 1.10,2013-03-18 23:54:00,
2013-03-18 20:09:00,25.0,23.0,30.24,NE,51,0.0,4.0,90,0.00,,,0.00,weatherlink.com 1.10,2013-03-19 00:09:00,
2013-03-18 20:24:00,25.0,23.0,30.24,East,94,1.0,5.0,90,0.00,,,0.00,weatherlink.com 1.10,2013-03-19 00:24:00,
2013-03-18 20:39:00,24.9,23.0,30.23,ESE,105,0.0,3.0,91,0.00,,,0.00,weatherlink.com 1.10,2013-03-19 00:39:00,
2013-03-18 20:54:00,24.9,23.0,30.23,SE,142,0.0,2.0,91,0.00,,,0.00,weatherlink.com 1.10,2013-03-19 00:54:00,
2013-03-18 21:09:00,24.9,23.0,30.23,ESE,117,3.0,5.0,91,0.00,,,0.00,weatherlink.com 1.10,2013-03-19 01:09:00,
2013-03-18 21:24:00,25.0,23.0,30.23,ESE,114,0.0,4.0,91,0.00,,,0.00,weatherlink.com 1.10,2013-03-19 01:24:00,
2013-03-18 21:39:00,24.8,23.0,30.23,ESE,114,0.0,5.0,91,0.00,,,0.00,weatherlink.com 1.10,2013-03-19 01:39:00,
2013-03-18 21:54:00,24.7,23.0,30.23,ENE,68,0.0,4.0,92,0.00,,,0.00,weatherlink.com 1.10,2013-03-19 01:54:00,
2013-03-18 22:10:00,24.7,23.0,30.23,ESE,114,1.0,5.0,92,0.00,,,0.00,weatherlink.com 1.10,2013-03-19 02:10:00,
2013-03-18 22:25:00,24.6,23.0,30.22,ESE,103,0.0,3.0,92,0.00,,,0.00,weatherlink.com 1.10,2013-03-19 02:25:00,
2013-03-18 22:40:00,24.6,23.0,30.21,NE,47,0.0,4.0,92,0.00,,,0.00,weatherlink.com 1.10,2013-03-19 02:40:00,
2013-03-18 22:55:00,24.6,23.0,30.20,East,93,0.0,2.0,92,0.00,,,0.00,weatherlink.com 1.10,2013-03-19 02:55:00,
2013-03-18 23:10:00,24.5,23.0,30.19,ESE,107,0.0,0.0,92,0.00,,,0.00,weatherlink.com 1.10,2013-03-19 03:10:00,
2013-03-18 23:25:00,24.6,23.0,30.18,East,86,0.0,0.0,92,0.00,,,0.00,weatherlink.com 1.10,2013-03-19 03:25:00,
2013-03-18 23:40:00,24.7,23.0,30.17,SE,129,0.0,0.0,92,0.00,,,0.00,weatherlink.com 1.10,2013-03-19 03:40:00,
2013-03-18 23:55:00,24.8,23.0,30.15,WNW,290,0.0,1.0,93,0.00,,,0.00,weatherlink.com 1.10,2013-03-19 03:55:00,